Portland Mills, Pennsylvania
Current Conditions -  °F | °C
As of 6:53 PM on Thursday 27 Nov 2014 (Local Time) from KDUJ Reporting Station
Light Snow Light Snow  
Wind Chill: 18°   Ceiling: 1800
Heat Index: 28°   Visibility: 4mi
Dew Point: 24°   Wind: 12mph
Humidity: 85%   Direction: 280°W
Pressure: 30.06"   Gusts: NA
Location:  41.4397°N, 78.7326°W
Report Text: KDUJ 272353Z AUTO 28010KT 4SM -SN BR FEW012 BKN018 OVC027 M02/M04 A3006 RMK AO2 SLP201 P0000 60002 T10221044 10006 21022 53010
Loading
Personal Weather Stations






























Interactive Weather Map New forecast layout! Learn more

10-Day Weather Forecast

Advertisements
Track Severe Weather on mobile